sensor_id;sensor_type;location;lat;lon;timestamp;P1;durP1;ratioP1;P2;durP2;ratioP2
9639;SDS011;51745;50.872;4.732;2023-07-13T00:02:14;5.22;;;1.98;;
9639;SDS011;51745;50.872;4.732;2023-07-13T00:04:43;4.53;;;2.20;;
9639;SDS011;51745;50.872;4.732;2023-07-13T00:07:12;5.30;;;2.22;;
9639;SDS011;51745;50.872;4.732;2023-07-13T00:09:42;5.05;;;2.22;;
9639;SDS011;51745;50.872;4.732;2023-07-13T00:12:22;4.75;;;1.98;;
9639;SDS011;51745;50.872;4.732;2023-07-13T00:14:55;5.55;;;2.20;;
9639;SDS011;51745;50.872;4.732;2023-07-13T00:17:24;5.72;;;2.17;;
9639;SDS011;51745;50.872;4.732;2023-07-13T00:19:55;6.65;;;2.28;;
9639;SDS011;51745;50.872;4.732;2023-07-13T00:22:25;6.60;;;2.17;;
9639;SDS011;51745;50.872;4.732;2023-07-13T00:24:54;4.97;;;1.98;;
9639;SDS011;51745;50.872;4.732;2023-07-13T00:27:25;5.03;;;2.10;;
9639;SDS011;51745;50.872;4.732;2023-07-13T00:29:56;3.55;;;1.90;;
9639;SDS011;51745;50.872;4.732;2023-07-13T00:32:25;6.50;;;2.35;;
9639;SDS011;51745;50.872;4.732;2023-07-13T00:34:54;6.35;;;2.28;;
9639;SDS011;51745;50.872;4.732;2023-07-13T00:37:23;5.07;;;2.53;;
9639;SDS011;51745;50.872;4.732;2023-07-13T00:39:52;5.75;;;2.45;;
9639;SDS011;51745;50.872;4.732;2023-07-13T00:42:21;5.63;;;2.35;;
9639;SDS011;51745;50.872;4.732;2023-07-13T00:45:06;5.93;;;2.45;;
9639;SDS011;51745;50.872;4.732;2023-07-13T00:47:55;4.68;;;2.17;;
9639;SDS011;51745;50.872;4.732;2023-07-13T00:50:26;7.05;;;2.38;;
9639;SDS011;51745;50.872;4.732;2023-07-13T00:52:55;7.43;;;2.42;;
9639;SDS011;51745;50.872;4.732;2023-07-13T00:55:25;5.75;;;2.03;;
9639;SDS011;51745;50.872;4.732;2023-07-13T00:57:54;6.03;;;2.60;;
9639;SDS011;51745;50.872;4.732;2023-07-13T01:00:25;5.57;;;2.17;;
9639;SDS011;51745;50.872;4.732;2023-07-13T01:02:56;7.28;;;2.97;;
9639;SDS011;51745;50.872;4.732;2023-07-13T01:05:25;7.18;;;2.53;;
9639;SDS011;51745;50.872;4.732;2023-07-13T01:07:55;5.20;;;2.30;;
9639;SDS011;51745;50.872;4.732;2023-07-13T01:10:24;6.55;;;2.55;;
9639;SDS011;51745;50.872;4.732;2023-07-13T01:12:54;7.72;;;2.58;;
9639;SDS011;51745;50.872;4.732;2023-07-13T01:18:14;5.90;;;2.35;;
9639;SDS011;51745;50.872;4.732;2023-07-13T01:20:53;6.90;;;2.55;;
9639;SDS011;51745;50.872;4.732;2023-07-13T01:23:23;5.47;;;2.50;;
9639;SDS011;51745;50.872;4.732;2023-07-13T01:25:54;4.95;;;2.28;;
9639;SDS011;51745;50.872;4.732;2023-07-13T01:28:25;6.93;;;2.58;;
9639;SDS011;51745;50.872;4.732;2023-07-13T01:30:56;6.00;;;2.50;;
9639;SDS011;51745;50.872;4.732;2023-07-13T01:33:26;7.97;;;2.78;;
9639;SDS011;51745;50.872;4.732;2023-07-13T01:35:57;5.15;;;2.38;;
9639;SDS011;51745;50.872;4.732;2023-07-13T01:38:26;5.68;;;2.83;;
9639;SDS011;51745;50.872;4.732;2023-07-13T01:40:55;5.15;;;2.20;;
9639;SDS011;51745;50.872;4.732;2023-07-13T01:43:25;5.82;;;2.25;;
9639;SDS011;51745;50.872;4.732;2023-07-13T01:45:54;7.80;;;2.47;;
9639;SDS011;51745;50.872;4.732;2023-07-13T01:48:43;7.22;;;2.63;;
9639;SDS011;51745;50.872;4.732;2023-07-13T01:51:13;7.55;;;2.70;;
9639;SDS011;51745;50.872;4.732;2023-07-13T01:53:43;4.97;;;2.30;;
9639;SDS011;51745;50.872;4.732;2023-07-13T01:56:12;5.80;;;2.30;;
9639;SDS011;51745;50.872;4.732;2023-07-13T01:58:42;6.22;;;2.65;;
9639;SDS011;51745;50.872;4.732;2023-07-13T02:01:11;7.00;;;2.88;;
9639;SDS011;51745;50.872;4.732;2023-07-13T02:03:40;6.60;;;2.55;;
9639;SDS011;51745;50.872;4.732;2023-07-13T02:06:09;6.50;;;2.42;;
9639;SDS011;51745;50.872;4.732;2023-07-13T02:08:40;5.20;;;2.67;;
9639;SDS011;51745;50.872;4.732;2023-07-13T02:11:10;6.40;;;2.67;;
9639;SDS011;51745;50.872;4.732;2023-07-13T02:13:39;6.90;;;3.17;;
9639;SDS011;51745;50.872;4.732;2023-07-13T02:16:08;5.18;;;2.50;;
9639;SDS011;51745;50.872;4.732;2023-07-13T02:18:38;7.05;;;2.58;;
9639;SDS011;51745;50.872;4.732;2023-07-13T02:21:08;6.53;;;2.83;;
9639;SDS011;51745;50.872;4.732;2023-07-13T02:23:36;9.35;;;2.90;;
9639;SDS011;51745;50.872;4.732;2023-07-13T02:26:06;6.22;;;2.60;;
9639;SDS011;51745;50.872;4.732;2023-07-13T02:28:36;4.30;;;2.50;;
9639;SDS011;51745;50.872;4.732;2023-07-13T02:31:05;6.90;;;2.85;;
9639;SDS011;51745;50.872;4.732;2023-07-13T02:33:35;6.53;;;2.95;;
9639;SDS011;51745;50.872;4.732;2023-07-13T02:36:04;7.32;;;2.85;;
9639;SDS011;51745;50.872;4.732;2023-07-13T02:38:34;7.68;;;2.80;;
9639;SDS011;51745;50.872;4.732;2023-07-13T02:41:03;4.85;;;2.58;;
9639;SDS011;51745;50.872;4.732;2023-07-13T02:43:34;6.53;;;3.05;;
9639;SDS011;51745;50.872;4.732;2023-07-13T02:46:03;6.07;;;2.65;;
9639;SDS011;51745;50.872;4.732;2023-07-13T02:48:35;6.45;;;2.72;;
9639;SDS011;51745;50.872;4.732;2023-07-13T02:51:06;9.57;;;3.17;;
9639;SDS011;51745;50.872;4.732;2023-07-13T02:53:35;9.48;;;3.08;;
9639;SDS011;51745;50.872;4.732;2023-07-13T02:56:05;8.98;;;3.25;;
9639;SDS011;51745;50.872;4.732;2023-07-13T02:58:36;7.25;;;3.15;;
9639;SDS011;51745;50.872;4.732;2023-07-13T03:01:06;8.85;;;3.25;;
9639;SDS011;51745;50.872;4.732;2023-07-13T03:03:37;6.95;;;2.88;;
9639;SDS011;51745;50.872;4.732;2023-07-13T03:06:06;10.23;;;3.13;;
9639;SDS011;51745;50.872;4.732;2023-07-13T03:08:46;5.75;;;2.58;;
9639;SDS011;51745;50.872;4.732;2023-07-13T03:11:17;9.07;;;2.70;;
9639;SDS011;51745;50.872;4.732;2023-07-13T03:13:55;6.82;;;3.22;;
9639;SDS011;51745;50.872;4.732;2023-07-13T03:16:27;10.57;;;3.30;;
9639;SDS011;51745;50.872;4.732;2023-07-13T03:18:57;10.50;;;3.17;;
9639;SDS011;51745;50.872;4.732;2023-07-13T03:21:26;9.70;;;3.20;;
9639;SDS011;51745;50.872;4.732;2023-07-13T03:23:55;7.63;;;2.92;;
9639;SDS011;51745;50.872;4.732;2023-07-13T03:26:24;9.13;;;3.15;;
9639;SDS011;51745;50.872;4.732;2023-07-13T03:28:53;7.82;;;3.10;;
9639;SDS011;51745;50.872;4.732;2023-07-13T03:31:25;10.93;;;3.30;;
9639;SDS011;51745;50.872;4.732;2023-07-13T03:33:56;6.75;;;3.10;;
9639;SDS011;51745;50.872;4.732;2023-07-13T03:36:28;6.03;;;2.83;;
9639;SDS011;51745;50.872;4.732;2023-07-13T03:39:02;9.93;;;3.28;;
9639;SDS011;51745;50.872;4.732;2023-07-13T03:41:47;9.63;;;3.33;;
9639;SDS011;51745;50.872;4.732;2023-07-13T03:44:16;5.45;;;3.08;;
9639;SDS011;51745;50.872;4.732;2023-07-13T03:46:51;7.45;;;3.17;;
9639;SDS011;51745;50.872;4.732;2023-07-13T03:49:20;4.25;;;2.47;;
9639;SDS011;51745;50.872;4.732;2023-07-13T03:51:48;8.35;;;3.15;;
9639;SDS011;51745;50.872;4.732;2023-07-13T03:54:20;8.85;;;3.10;;
9639;SDS011;51745;50.872;4.732;2023-07-13T03:56:49;6.10;;;3.50;;
9639;SDS011;51745;50.872;4.732;2023-07-13T03:59:19;8.50;;;3.05;;
9639;SDS011;51745;50.872;4.732;2023-07-13T04:01:48;9.63;;;3.15;;
9639;SDS011;51745;50.872;4.732;2023-07-13T04:04:18;8.60;;;3.20;;
9639;SDS011;51745;50.872;4.732;2023-07-13T04:07:02;6.38;;;3.00;;
9639;SDS011;51745;50.872;4.732;2023-07-13T04:09:31;6.80;;;3.28;;
9639;SDS011;51745;50.872;4.732;2023-07-13T04:12:00;8.35;;;3.13;;
9639;SDS011;51745;50.872;4.732;2023-07-13T04:14:29;8.73;;;3.28;;
9639;SDS011;51745;50.872;4.732;2023-07-13T04:16:58;9.00;;;3.30;;
9639;SDS011;51745;50.872;4.732;2023-07-13T04:19:29;6.75;;;3.25;;
9639;SDS011;51745;50.872;4.732;2023-07-13T04:21:57;8.82;;;3.35;;
9639;SDS011;51745;50.872;4.732;2023-07-13T04:24:27;7.00;;;3.10;;
9639;SDS011;51745;50.872;4.732;2023-07-13T04:26:56;8.57;;;3.90;;
9639;SDS011;51745;50.872;4.732;2023-07-13T04:29:27;8.23;;;3.33;;
9639;SDS011;51745;50.872;4.732;2023-07-13T04:31:57;9.68;;;3.47;;
9639;SDS011;51745;50.872;4.732;2023-07-13T04:34:27;9.13;;;3.40;;
9639;SDS011;51745;50.872;4.732;2023-07-13T04:36:57;9.70;;;3.38;;
9639;SDS011;51745;50.872;4.732;2023-07-13T04:39:27;8.68;;;3.40;;
9639;SDS011;51745;50.872;4.732;2023-07-13T04:41:56;9.13;;;3.25;;
9639;SDS011;51745;50.872;4.732;2023-07-13T04:44:25;8.02;;;3.20;;
9639;SDS011;51745;50.872;4.732;2023-07-13T04:46:54;9.63;;;3.60;;
9639;SDS011;51745;50.872;4.732;2023-07-13T04:49:23;10.57;;;3.70;;
9639;SDS011;51745;50.872;4.732;2023-07-13T04:51:54;10.82;;;3.40;;
9639;SDS011;51745;50.872;4.732;2023-07-13T04:54:24;7.15;;;3.30;;
9639;SDS011;51745;50.872;4.732;2023-07-13T04:56:53;9.13;;;3.28;;
9639;SDS011;51745;50.872;4.732;2023-07-13T04:59:23;8.75;;;3.38;;
9639;SDS011;51745;50.872;4.732;2023-07-13T05:01:52;11.15;;;3.50;;
9639;SDS011;51745;50.872;4.732;2023-07-13T05:04:22;7.85;;;3.38;;
9639;SDS011;51745;50.872;4.732;2023-07-13T05:06:51;8.32;;;3.50;;
9639;SDS011;51745;50.872;4.732;2023-07-13T05:09:22;8.75;;;3.22;;
9639;SDS011;51745;50.872;4.732;2023-07-13T05:11:51;8.18;;;3.20;;
9639;SDS011;51745;50.872;4.732;2023-07-13T05:14:21;12.45;;;3.22;;
9639;SDS011;51745;50.872;4.732;2023-07-13T05:16:50;12.23;;;3.70;;
9639;SDS011;51745;50.872;4.732;2023-07-13T05:19:20;10.02;;;3.63;;
9639;SDS011;51745;50.872;4.732;2023-07-13T05:21:49;11.48;;;4.10;;
9639;SDS011;51745;50.872;4.732;2023-07-13T05:24:19;15.18;;;3.90;;
9639;SDS011;51745;50.872;4.732;2023-07-13T05:26:53;10.15;;;3.38;;
9639;SDS011;51745;50.872;4.732;2023-07-13T05:29:23;9.27;;;3.55;;
9639;SDS011;51745;50.872;4.732;2023-07-13T05:31:52;10.18;;;4.00;;
9639;SDS011;51745;50.872;4.732;2023-07-13T05:34:22;9.98;;;3.85;;
9639;SDS011;51745;50.872;4.732;2023-07-13T05:36:51;7.72;;;3.67;;
9639;SDS011;51745;50.872;4.732;2023-07-13T05:39:20;11.70;;;3.92;;
9639;SDS011;51745;50.872;4.732;2023-07-13T05:41:50;11.05;;;3.80;;
9639;SDS011;51745;50.872;4.732;2023-07-13T05:44:20;11.98;;;3.60;;
9639;SDS011;51745;50.872;4.732;2023-07-13T05:46:50;10.80;;;3.28;;
9639;SDS011;51745;50.872;4.732;2023-07-13T05:49:19;13.00;;;4.15;;
9639;SDS011;51745;50.872;4.732;2023-07-13T05:51:49;15.30;;;3.95;;
9639;SDS011;51745;50.872;4.732;2023-07-13T05:54:19;10.75;;;4.03;;
9639;SDS011;51745;50.872;4.732;2023-07-13T05:56:48;12.52;;;4.07;;
9639;SDS011;51745;50.872;4.732;2023-07-13T05:59:18;11.55;;;3.88;;
9639;SDS011;51745;50.872;4.732;2023-07-13T06:01:49;8.63;;;3.60;;
9639;SDS011;51745;50.872;4.732;2023-07-13T06:04:20;11.52;;;3.65;;
9639;SDS011;51745;50.872;4.732;2023-07-13T06:06:49;9.25;;;3.80;;
9639;SDS011;51745;50.872;4.732;2023-07-13T06:09:19;8.50;;;3.47;;
9639;SDS011;51745;50.872;4.732;2023-07-13T06:11:47;11.20;;;4.10;;
9639;SDS011;51745;50.872;4.732;2023-07-13T06:14:17;9.75;;;3.70;;
9639;SDS011;51745;50.872;4.732;2023-07-13T06:16:46;10.77;;;4.35;;
9639;SDS011;51745;50.872;4.732;2023-07-13T06:19:17;8.07;;;3.78;;
9639;SDS011;51745;50.872;4.732;2023-07-13T06:21:46;11.95;;;4.00;;
9639;SDS011;51745;50.872;4.732;2023-07-13T06:24:15;11.88;;;4.22;;
9639;SDS011;51745;50.872;4.732;2023-07-13T06:26:44;13.85;;;4.45;;
9639;SDS011;51745;50.872;4.732;2023-07-13T06:29:14;9.77;;;3.67;;
9639;SDS011;51745;50.872;4.732;2023-07-13T06:31:43;10.82;;;4.00;;
9639;SDS011;51745;50.872;4.732;2023-07-13T06:34:13;9.93;;;3.65;;
9639;SDS011;51745;50.872;4.732;2023-07-13T06:36:43;12.77;;;4.55;;
9639;SDS011;51745;50.872;4.732;2023-07-13T06:39:12;11.02;;;4.07;;
9639;SDS011;51745;50.872;4.732;2023-07-13T06:41:41;10.35;;;3.70;;
9639;SDS011;51745;50.872;4.732;2023-07-13T06:44:13;9.77;;;3.67;;
9639;SDS011;51745;50.872;4.732;2023-07-13T06:46:42;11.25;;;4.47;;
9639;SDS011;51745;50.872;4.732;2023-07-13T06:49:12;10.10;;;4.45;;
9639;SDS011;51745;50.872;4.732;2023-07-13T06:51:43;13.13;;;3.83;;
9639;SDS011;51745;50.872;4.732;2023-07-13T06:54:13;9.27;;;3.45;;
9639;SDS011;51745;50.872;4.732;2023-07-13T06:56:42;10.25;;;3.75;;
9639;SDS011;51745;50.872;4.732;2023-07-13T06:59:11;10.93;;;4.30;;
9639;SDS011;51745;50.872;4.732;2023-07-13T07:01:41;10.38;;;3.70;;
9639;SDS011;51745;50.872;4.732;2023-07-13T07:04:11;13.55;;;3.88;;
9639;SDS011;51745;50.872;4.732;2023-07-13T07:06:40;13.30;;;3.80;;
9639;SDS011;51745;50.872;4.732;2023-07-13T07:09:11;11.40;;;3.67;;
9639;SDS011;51745;50.872;4.732;2023-07-13T07:11:41;9.65;;;3.60;;
9639;SDS011;51745;50.872;4.732;2023-07-13T07:14:29;11.13;;;3.72;;
9639;SDS011;51745;50.872;4.732;2023-07-13T07:16:58;11.35;;;4.15;;
9639;SDS011;51745;50.872;4.732;2023-07-13T07:19:29;11.23;;;4.07;;
9639;SDS011;51745;50.872;4.732;2023-07-13T07:21:59;12.82;;;3.95;;
9639;SDS011;51745;50.872;4.732;2023-07-13T07:24:29;10.15;;;3.75;;
9639;SDS011;51745;50.872;4.732;2023-07-13T07:26:59;13.07;;;4.00;;
9639;SDS011;51745;50.872;4.732;2023-07-13T07:29:31;10.73;;;4.18;;
9639;SDS011;51745;50.872;4.732;2023-07-13T07:32:04;10.23;;;3.85;;
9639;SDS011;51745;50.872;4.732;2023-07-13T07:34:44;9.32;;;3.35;;
9639;SDS011;51745;50.872;4.732;2023-07-13T07:37:13;9.13;;;3.60;;
9639;SDS011;51745;50.872;4.732;2023-07-13T07:39:47;10.77;;;3.95;;
9639;SDS011;51745;50.872;4.732;2023-07-13T07:42:37;11.05;;;3.88;;
9639;SDS011;51745;50.872;4.732;2023-07-13T07:45:06;9.00;;;3.55;;
9639;SDS011;51745;50.872;4.732;2023-07-13T07:47:39;9.15;;;3.92;;
9639;SDS011;51745;50.872;4.732;2023-07-13T07:50:09;10.02;;;4.07;;
9639;SDS011;51745;50.872;4.732;2023-07-13T07:52:39;10.52;;;3.85;;
9639;SDS011;51745;50.872;4.732;2023-07-13T07:55:09;10.35;;;3.67;;
9639;SDS011;51745;50.872;4.732;2023-07-13T07:57:42;9.13;;;3.25;;
9639;SDS011;51745;50.872;4.732;2023-07-13T08:00:14;9.13;;;3.35;;
9639;SDS011;51745;50.872;4.732;2023-07-13T08:02:47;13.77;;;4.28;;
9639;SDS011;51745;50.872;4.732;2023-07-13T08:05:19;9.45;;;3.95;;
9639;SDS011;51745;50.872;4.732;2023-07-13T08:08:05;7.97;;;3.50;;
9639;SDS011;51745;50.872;4.732;2023-07-13T08:10:36;8.32;;;3.53;;
9639;SDS011;51745;50.872;4.732;2023-07-13T08:13:05;9.52;;;3.38;;
9639;SDS011;51745;50.872;4.732;2023-07-13T08:15:38;10.77;;;3.80;;
9639;SDS011;51745;50.872;4.732;2023-07-13T08:18:08;8.63;;;3.28;;
9639;SDS011;51745;50.872;4.732;2023-07-13T08:20:37;6.95;;;3.40;;
9639;SDS011;51745;50.872;4.732;2023-07-13T08:23:08;8.63;;;3.58;;
9639;SDS011;51745;50.872;4.732;2023-07-13T08:25:39;9.68;;;3.65;;
9639;SDS011;51745;50.872;4.732;2023-07-13T08:28:09;8.35;;;3.55;;
9639;SDS011;51745;50.872;4.732;2023-07-13T08:30:38;14.95;;;4.40;;
9639;SDS011;51745;50.872;4.732;2023-07-13T08:33:07;9.45;;;3.45;;
9639;SDS011;51745;50.872;4.732;2023-07-13T08:35:36;9.50;;;3.13;;
9639;SDS011;51745;50.872;4.732;2023-07-13T08:38:06;7.97;;;3.47;;
9639;SDS011;51745;50.872;4.732;2023-07-13T08:40:35;8.07;;;3.33;;
9639;SDS011;51745;50.872;4.732;2023-07-13T08:43:07;6.90;;;2.80;;
9639;SDS011;51745;50.872;4.732;2023-07-13T08:45:46;6.68;;;3.35;;
9639;SDS011;51745;50.872;4.732;2023-07-13T08:48:18;7.82;;;2.85;;
9639;SDS011;51745;50.872;4.732;2023-07-13T08:50:54;7.93;;;3.35;;
9639;SDS011;51745;50.872;4.732;2023-07-13T08:53:42;8.00;;;2.88;;
9639;SDS011;51745;50.872;4.732;2023-07-13T08:56:16;5.78;;;2.70;;
9639;SDS011;51745;50.872;4.732;2023-07-13T08:58:50;7.70;;;3.28;;
9639;SDS011;51745;50.872;4.732;2023-07-13T09:01:24;7.85;;;3.20;;
9639;SDS011;51745;50.872;4.732;2023-07-13T09:04:02;9.55;;;3.53;;
9639;SDS011;51745;50.872;4.732;2023-07-13T09:06:39;6.40;;;2.85;;
9639;SDS011;51745;50.872;4.732;2023-07-13T09:09:24;7.57;;;3.00;;
9639;SDS011;51745;50.872;4.732;2023-07-13T09:12:07;7.53;;;3.20;;
9639;SDS011;51745;50.872;4.732;2023-07-13T09:14:43;6.95;;;2.78;;
9639;SDS011;51745;50.872;4.732;2023-07-13T09:17:17;6.97;;;2.90;;
9639;SDS011;51745;50.872;4.732;2023-07-13T09:19:49;6.75;;;2.67;;
9639;SDS011;51745;50.872;4.732;2023-07-13T09:22:26;6.28;;;2.75;;
9639;SDS011;51745;50.872;4.732;2023-07-13T09:25:02;8.18;;;2.72;;
9639;SDS011;51745;50.872;4.732;2023-07-13T09:27:40;8.75;;;3.10;;
9639;SDS011;51745;50.872;4.732;2023-07-13T09:30:27;5.22;;;2.58;;
9639;SDS011;51745;50.872;4.732;2023-07-13T09:33:05;6.70;;;2.88;;
9639;SDS011;51745;50.872;4.732;2023-07-13T09:35:36;6.82;;;2.38;;
9639;SDS011;51745;50.872;4.732;2023-07-13T09:38:10;5.30;;;2.42;;
9639;SDS011;51745;50.872;4.732;2023-07-13T09:40:44;5.65;;;2.53;;
9639;SDS011;51745;50.872;4.732;2023-07-13T09:43:21;6.47;;;2.75;;
9639;SDS011;51745;50.872;4.732;2023-07-13T09:45:52;5.47;;;2.28;;
9639;SDS011;51745;50.872;4.732;2023-07-13T09:48:21;5.22;;;2.40;;
9639;SDS011;51745;50.872;4.732;2023-07-13T09:50:54;5.38;;;2.13;;
9639;SDS011;51745;50.872;4.732;2023-07-13T09:53:24;5.90;;;2.75;;
9639;SDS011;51745;50.872;4.732;2023-07-13T09:55:59;5.22;;;2.50;;
9639;SDS011;51745;50.872;4.732;2023-07-13T09:58:30;6.75;;;2.47;;
9639;SDS011;51745;50.872;4.732;2023-07-13T10:01:02;4.50;;;2.30;;
9639;SDS011;51745;50.872;4.732;2023-07-13T10:03:36;6.53;;;2.42;;
9639;SDS011;51745;50.872;4.732;2023-07-13T10:06:11;8.52;;;2.78;;
9639;SDS011;51745;50.872;4.732;2023-07-13T10:08:43;5.15;;;2.53;;
9639;SDS011;51745;50.872;4.732;2023-07-13T10:11:17;7.18;;;2.63;;
9639;SDS011;51745;50.872;4.732;2023-07-13T10:13:50;4.43;;;2.17;;
9639;SDS011;51745;50.872;4.732;2023-07-13T10:16:25;6.07;;;2.35;;
9639;SDS011;51745;50.872;4.732;2023-07-13T10:19:02;4.00;;;2.10;;
9639;SDS011;51745;50.872;4.732;2023-07-13T10:21:38;6.65;;;2.28;;
9639;SDS011;51745;50.872;4.732;2023-07-13T10:24:12;6.78;;;2.67;;
9639;SDS011;51745;50.872;4.732;2023-07-13T10:26:46;5.03;;;2.40;;
9639;SDS011;51745;50.872;4.732;2023-07-13T10:29:21;2.92;;;1.90;;
9639;SDS011;51745;50.872;4.732;2023-07-13T10:31:55;4.70;;;2.30;;
9639;SDS011;51745;50.872;4.732;2023-07-13T10:34:25;4.38;;;2.22;;
9639;SDS011;51745;50.872;4.732;2023-07-13T10:36:55;5.15;;;1.80;;
9639;SDS011;51745;50.872;4.732;2023-07-13T10:39:26;6.35;;;2.50;;
9639;SDS011;51745;50.872;4.732;2023-07-13T10:41:58;4.82;;;2.13;;
9639;SDS011;51745;50.872;4.732;2023-07-13T10:44:32;5.70;;;2.38;;
9639;SDS011;51745;50.872;4.732;2023-07-13T10:47:04;5.28;;;2.25;;
9639;SDS011;51745;50.872;4.732;2023-07-13T10:49:37;4.70;;;2.15;;
9639;SDS011;51745;50.872;4.732;2023-07-13T10:52:20;6.10;;;2.50;;
9639;SDS011;51745;50.872;4.732;2023-07-13T10:58:12;4.63;;;2.17;;
9639;SDS011;51745;50.872;4.732;2023-07-13T11:00:44;5.35;;;2.22;;
9639;SDS011;51745;50.872;4.732;2023-07-13T11:03:19;5.57;;;2.42;;
9639;SDS011;51745;50.872;4.732;2023-07-13T11:05:50;3.95;;;2.05;;
9639;SDS011;51745;50.872;4.732;2023-07-13T11:08:33;4.97;;;2.13;;
9639;SDS011;51745;50.872;4.732;2023-07-13T11:14:14;4.70;;;2.20;;
9639;SDS011;51745;50.872;4.732;2023-07-13T11:16:55;4.53;;;2.20;;
9639;SDS011;51745;50.872;4.732;2023-07-13T11:19:28;6.43;;;2.15;;
9639;SDS011;51745;50.872;4.732;2023-07-13T11:22:13;5.55;;;2.30;;
9639;SDS011;51745;50.872;4.732;2023-07-13T11:24:58;3.45;;;2.00;;
9639;SDS011;51745;50.872;4.732;2023-07-13T11:27:40;5.32;;;2.28;;
9639;SDS011;51745;50.872;4.732;2023-07-13T11:30:24;4.63;;;2.30;;
9639;SDS011;51745;50.872;4.732;2023-07-13T11:33:04;5.10;;;2.10;;
9639;SDS011;51745;50.872;4.732;2023-07-13T11:35:44;3.97;;;2.25;;
9639;SDS011;51745;50.872;4.732;2023-07-13T11:38:30;6.45;;;2.40;;
9639;SDS011;51745;50.872;4.732;2023-07-13T11:41:03;4.30;;;2.00;;
9639;SDS011;51745;50.872;4.732;2023-07-13T11:43:34;5.80;;;2.03;;
9639;SDS011;51745;50.872;4.732;2023-07-13T11:46:13;5.85;;;1.90;;
9639;SDS011;51745;50.872;4.732;2023-07-13T11:48:44;5.78;;;2.17;;
9639;SDS011;51745;50.872;4.732;2023-07-13T11:51:18;4.03;;;2.10;;
9639;SDS011;51745;50.872;4.732;2023-07-13T11:53:52;3.28;;;2.03;;
9639;SDS011;51745;50.872;4.732;2023-07-13T11:56:25;3.67;;;2.05;;
9639;SDS011;51745;50.872;4.732;2023-07-13T11:58:55;5.47;;;2.08;;
9639;SDS011;51745;50.872;4.732;2023-07-13T12:01:26;4.13;;;1.90;;
9639;SDS011;51745;50.872;4.732;2023-07-13T12:04:01;5.20;;;1.88;;
9639;SDS011;51745;50.872;4.732;2023-07-13T12:06:33;3.65;;;1.80;;
9639;SDS011;51745;50.872;4.732;2023-07-13T12:09:10;4.20;;;1.67;;
9639;SDS011;51745;50.872;4.732;2023-07-13T12:11:43;3.03;;;1.70;;
9639;SDS011;51745;50.872;4.732;2023-07-13T12:14:13;3.50;;;1.80;;
9639;SDS011;51745;50.872;4.732;2023-07-13T12:16:44;2.67;;;1.75;;
9639;SDS011;51745;50.872;4.732;2023-07-13T12:19:17;5.00;;;2.08;;
9639;SDS011;51745;50.872;4.732;2023-07-13T12:21:50;4.40;;;2.15;;
9639;SDS011;51745;50.872;4.732;2023-07-13T12:24:21;4.07;;;1.80;;
9639;SDS011;51745;50.872;4.732;2023-07-13T12:26:51;4.13;;;1.70;;
9639;SDS011;51745;50.872;4.732;2023-07-13T12:29:21;2.50;;;1.70;;
9639;SDS011;51745;50.872;4.732;2023-07-13T12:31:50;2.20;;;1.65;;
9639;SDS011;51745;50.872;4.732;2023-07-13T12:34:20;4.53;;;1.83;;
9639;SDS011;51745;50.872;4.732;2023-07-13T12:36:54;3.58;;;1.92;;
9639;SDS011;51745;50.872;4.732;2023-07-13T12:39:28;3.92;;;1.90;;
9639;SDS011;51745;50.872;4.732;2023-07-13T12:42:18;3.70;;;1.85;;
9639;SDS011;51745;50.872;4.732;2023-07-13T12:44:52;4.10;;;1.80;;
9639;SDS011;51745;50.872;4.732;2023-07-13T12:47:22;2.80;;;1.85;;
9639;SDS011;51745;50.872;4.732;2023-07-13T12:49:53;6.03;;;2.00;;
9639;SDS011;51745;50.872;4.732;2023-07-13T12:52:30;3.33;;;1.95;;
9639;SDS011;51745;50.872;4.732;2023-07-13T12:55:04;3.00;;;1.80;;
9639;SDS011;51745;50.872;4.732;2023-07-13T12:57:41;6.32;;;2.10;;
9639;SDS011;51745;50.872;4.732;2023-07-13T13:00:22;4.88;;;2.20;;
9639;SDS011;51745;50.872;4.732;2023-07-13T13:02:54;2.30;;;2.00;;
9639;SDS011;51745;50.872;4.732;2023-07-13T13:05:42;2.67;;;1.70;;
9639;SDS011;51745;50.872;4.732;2023-07-13T13:08:14;3.97;;;2.33;;
9639;SDS011;51745;50.872;4.732;2023-07-13T13:10:43;2.67;;;1.70;;
9639;SDS011;51745;50.872;4.732;2023-07-13T13:13:13;2.28;;;1.77;;
9639;SDS011;51745;50.872;4.732;2023-07-13T13:15:42;2.30;;;1.90;;
9639;SDS011;51745;50.872;4.732;2023-07-13T13:18:15;3.03;;;1.83;;
9639;SDS011;51745;50.872;4.732;2023-07-13T13:20:46;2.28;;;1.45;;
9639;SDS011;51745;50.872;4.732;2023-07-13T13:23:19;3.08;;;1.88;;
9639;SDS011;51745;50.872;4.732;2023-07-13T13:25:50;3.20;;;1.90;;
9639;SDS011;51745;50.872;4.732;2023-07-13T13:28:20;4.10;;;2.20;;
9639;SDS011;51745;50.872;4.732;2023-07-13T13:30:50;4.15;;;2.10;;
9639;SDS011;51745;50.872;4.732;2023-07-13T13:33:20;3.08;;;2.00;;
9639;SDS011;51745;50.872;4.732;2023-07-13T13:35:50;3.47;;;2.03;;
9639;SDS011;51745;50.872;4.732;2023-07-13T13:38:22;3.05;;;1.90;;
9639;SDS011;51745;50.872;4.732;2023-07-13T13:40:55;3.05;;;1.95;;
9639;SDS011;51745;50.872;4.732;2023-07-13T13:43:25;2.90;;;2.15;;
9639;SDS011;51745;50.872;4.732;2023-07-13T13:45:55;4.80;;;1.95;;
9639;SDS011;51745;50.872;4.732;2023-07-13T13:48:29;4.22;;;2.05;;
9639;SDS011;51745;50.872;4.732;2023-07-13T13:51:00;3.88;;;1.90;;
9639;SDS011;51745;50.872;4.732;2023-07-13T13:53:33;2.65;;;1.70;;
9639;SDS011;51745;50.872;4.732;2023-07-13T13:56:03;4.57;;;2.05;;
9639;SDS011;51745;50.872;4.732;2023-07-13T13:58:33;3.72;;;2.10;;
9639;SDS011;51745;50.872;4.732;2023-07-13T14:01:02;3.25;;;2.00;;
9639;SDS011;51745;50.872;4.732;2023-07-13T14:03:35;3.85;;;1.67;;
9639;SDS011;51745;50.872;4.732;2023-07-13T14:06:05;3.50;;;1.80;;
9639;SDS011;51745;50.872;4.732;2023-07-13T14:08:35;3.55;;;2.00;;
9639;SDS011;51745;50.872;4.732;2023-07-13T14:11:05;2.88;;;2.00;;
9639;SDS011;51745;50.872;4.732;2023-07-13T14:13:40;4.32;;;1.88;;
9639;SDS011;51745;50.872;4.732;2023-07-13T14:16:12;2.38;;;1.88;;
9639;SDS011;51745;50.872;4.732;2023-07-13T14:18:46;4.47;;;2.30;;
9639;SDS011;51745;50.872;4.732;2023-07-13T14:21:17;2.15;;;1.80;;
9639;SDS011;51745;50.872;4.732;2023-07-13T14:23:49;3.78;;;1.92;;
9639;SDS011;51745;50.872;4.732;2023-07-13T14:26:20;2.13;;;1.75;;
9639;SDS011;51745;50.872;4.732;2023-07-13T14:28:52;4.55;;;2.10;;
9639;SDS011;51745;50.872;4.732;2023-07-13T14:31:23;3.05;;;1.90;;
9639;SDS011;51745;50.872;4.732;2023-07-13T14:33:57;3.03;;;2.00;;
9639;SDS011;51745;50.872;4.732;2023-07-13T14:36:28;5.20;;;1.95;;
9639;SDS011;51745;50.872;4.732;2023-07-13T14:39:01;3.20;;;2.38;;
9639;SDS011;51745;50.872;4.732;2023-07-13T14:41:40;3.47;;;2.10;;
9639;SDS011;51745;50.872;4.732;2023-07-13T14:44:12;5.60;;;2.30;;
9639;SDS011;51745;50.872;4.732;2023-07-13T14:46:42;2.50;;;1.80;;
9639;SDS011;51745;50.872;4.732;2023-07-13T14:49:15;3.30;;;2.13;;
9639;SDS011;51745;50.872;4.732;2023-07-13T14:51:54;3.55;;;1.80;;
9639;SDS011;51745;50.872;4.732;2023-07-13T14:54:26;4.13;;;2.00;;
9639;SDS011;51745;50.872;4.732;2023-07-13T14:56:55;4.45;;;1.80;;
9639;SDS011;51745;50.872;4.732;2023-07-13T14:59:25;4.80;;;1.95;;
9639;SDS011;51745;50.872;4.732;2023-07-13T15:01:54;3.45;;;1.88;;
9639;SDS011;51745;50.872;4.732;2023-07-13T15:04:23;3.03;;;2.20;;
9639;SDS011;51745;50.872;4.732;2023-07-13T15:06:53;4.18;;;2.10;;
9639;SDS011;51745;50.872;4.732;2023-07-13T15:09:26;2.60;;;1.88;;
9639;SDS011;51745;50.872;4.732;2023-07-13T15:11:57;3.45;;;2.13;;
9639;SDS011;51745;50.872;4.732;2023-07-13T15:14:27;3.88;;;2.00;;
9639;SDS011;51745;50.872;4.732;2023-07-13T15:16:59;4.28;;;1.98;;
9639;SDS011;51745;50.872;4.732;2023-07-13T15:19:30;2.65;;;1.88;;
9639;SDS011;51745;50.872;4.732;2023-07-13T15:21:59;3.30;;;1.90;;
9639;SDS011;51745;50.872;4.732;2023-07-13T15:24:30;4.10;;;2.25;;
9639;SDS011;51745;50.872;4.732;2023-07-13T15:26:59;3.53;;;1.80;;
9639;SDS011;51745;50.872;4.732;2023-07-13T15:29:28;4.22;;;2.00;;
9639;SDS011;51745;50.872;4.732;2023-07-13T15:31:57;2.15;;;1.73;;
9639;SDS011;51745;50.872;4.732;2023-07-13T15:34:26;4.00;;;2.00;;
9639;SDS011;51745;50.872;4.732;2023-07-13T15:36:56;2.95;;;1.80;;
9639;SDS011;51745;50.872;4.732;2023-07-13T15:39:27;3.35;;;2.00;;